首页
METAR-TAF:

METAR-TAF

机场 :

金邊國際機場

金边, 柬埔寨

纬度: 11-33N, 经度: 104-51E, 海拔: 10米

当前天气观测

该预报发布于29分钟前的14:30 UTC
风速3节,风向多变
温度 29°C
湿度 84%
气压 1006 hPa
能見度: 9000
散云层高于1500英尺
散云层高于4000英尺

METAR: VDPP 171430Z VRB03KT 9000 SCT015 SCT040 29/26 Q1006

时间: 21:59 (14:59 UTC)

预报

该预报发布于3小时和59分钟前的11:00 UTC
预报有效从17日的 12点(UTC)到 18日的 06点(UTC)
风速8节,风向西南
能见度10公里或以上
散云层高于1700英尺
短暂存在
从 17日的 12点(UTC)到 17日的 17点(UTC)
散云层高于1500英尺
少量云层高于1700英尺, 积雨云.
散云层高于4000英尺
雷暴,

TAF: VDPP 171100Z 1712/1806 23008KT 9999 SCT017 TEMPO 1712/1717 TS SCT015 FEW017CB SCT040

超过4000个机场的气象观测和天气预报(METAR&TAF报告)。

可查询的气象台以黄色和红色小点在地图上表示。

将鼠标移到小点上方,可查看气象台名称。

然后点击查看天气观测和预报。

如需切换地图:点击带黑十字的绿色按钮放大地图;点击带横线的绿色按钮缩小地图;或者点击绿色箭头查看邻近地区的地图。


METAR-TAF: